Time;durP1;ratioP1;P1;durP2;ratioP2;P2;SDS_P1;SDS_P2;PMS_P1;PMS_P2;Temp;Humidity;BMP_temperature;BMP_pressure;BME280_temperature;BME280_humidity;BME280_pressure;Samples;Min_cycle;Max_cycle;Signal;HPM_P1;HPM_P2
2021/05/02 00:00:35;;;;;;;1.40;1.30;;;14.30;68.60;;;;;;5093770;28;20062;-41
2021/05/02 00:03:02;;;;;;;1.92;1.10;;;14.30;68.60;;;;;;5092593;28;20048;-45
2021/05/02 00:05:33;;;;;;;1.83;1.25;;;14.30;68.60;;;;;;5091139;28;20047;-45
2021/05/02 00:08:00;;;;;;;1.15;1.00;;;14.30;68.60;;;;;;5093784;28;20119;-44
2021/05/02 00:10:29;;;;;;;1.45;1.10;;;14.30;68.60;;;;;;5093484;28;20043;-41
2021/05/02 00:12:59;;;;;;;2.72;1.23;;;14.30;68.60;;;;;;5093189;28;20047;-46
2021/05/02 00:15:28;;;;;;;2.00;0.75;;;14.30;68.60;;;;;;5093433;28;20485;-44
2021/05/02 00:17:56;;;;;;;2.03;1.20;;;14.30;68.60;;;;;;5093757;28;20119;-41
2021/05/02 00:20:24;;;;;;;1.10;1.00;;;14.30;68.60;;;;;;5092889;28;20112;-43
2021/05/02 00:22:53;;;;;;;2.53;1.48;;;14.30;68.60;;;;;;5091385;28;20052;-44
2021/05/02 00:25:23;;;;;;;1.85;1.30;;;14.30;68.60;;;;;;5093707;28;20493;-44
2021/05/02 00:27:49;;;;;;;1.20;1.08;;;14.30;68.60;;;;;;5093104;28;20583;-43
2021/05/02 00:30:18;;;;;;;1.50;1.20;;;14.20;68.50;;;;;;5093881;28;20127;-45
2021/05/02 00:32:47;;;;;;;1.77;1.00;;;14.30;68.60;;;;;;5093111;28;20040;-45
2021/05/02 00:35:14;;;;;;;1.20;1.10;;;14.40;68.70;;;;;;5090796;28;20048;-44
2021/05/02 00:37:41;;;;;;;1.13;1.05;;;14.30;68.60;;;;;;5093005;28;20389;-42
2021/05/02 00:40:12;;;;;;;2.35;1.00;;;14.30;68.60;;;;;;5093241;28;20100;-45
2021/05/02 00:42:46;;;;;;;1.95;1.30;;;14.30;68.60;;;;;;5091727;28;20084;-43
2021/05/02 00:45:19;;;;;;;1.10;1.00;;;14.20;68.60;;;;;;5090974;28;20040;-42
2021/05/02 00:47:48;;;;;;;1.38;1.23;;;14.20;68.60;;;;;;5092870;28;20063;-44
2021/05/02 00:50:20;;;;;;;2.10;1.38;;;14.20;68.60;;;;;;5092000;28;20073;-44
2021/05/02 00:52:51;;;;;;;1.45;1.05;;;14.20;68.60;;;;;;5092475;28;20052;-42
2021/05/02 00:55:41;;;;;;;1.77;1.30;;;14.20;69.30;;;;;;5092822;28;20044;-45
2021/05/02 00:58:10;;;;;;;1.33;1.10;;;14.20;68.60;;;;;;5092093;28;20439;-45
2021/05/02 01:00:41;;;;;;;1.33;1.20;;;14.30;68.70;;;;;;5092233;28;20055;-47
2021/05/02 01:03:07;;;;;;;3.10;1.20;;;14.20;68.60;;;;;;5092036;28;20082;-45
2021/05/02 01:05:34;;;;;;;0.98;0.93;;;14.20;68.60;;;;;;5092944;28;20044;-43
2021/05/02 01:08:03;;;;;;;1.08;0.98;;;14.30;68.70;;;;;;5092465;28;20043;-44
2021/05/02 01:10:30;;;;;;;1.60;1.10;;;14.30;68.70;;;;;;5093122;28;20046;-42
2021/05/02 01:12:59;;;;;;;0.93;0.93;;;14.20;68.60;;;;;;5092423;28;20031;-43
2021/05/02 01:15:33;;;;;;;1.60;0.85;;;14.20;68.60;;;;;;5092654;28;20086;-42
2021/05/02 01:18:05;;;;;;;1.43;1.13;;;14.20;68.60;;;;;;5090564;28;20477;-43
2021/05/02 01:20:33;;;;;;;2.22;1.00;;;14.20;68.70;;;;;;5091242;28;20329;-43
2021/05/02 01:23:03;;;;;;;1.50;0.98;;;14.30;68.70;;;;;;5092064;28;20048;-43
2021/05/02 01:25:30;;;;;;;1.25;1.00;;;14.20;68.70;;;;;;5092504;28;20072;-42
2021/05/02 01:27:58;;;;;;;1.20;1.08;;;14.20;68.60;;;;;;5092474;28;20068;-44
2021/05/02 01:30:26;;;;;;;1.33;1.17;;;14.20;68.60;;;;;;5092434;28;20051;-43
2021/05/02 01:32:52;;;;;;;2.05;1.33;;;14.30;68.70;;;;;;5092266;28;20046;-46
2021/05/02 01:35:18;;;;;;;1.48;1.13;;;14.20;68.70;;;;;;5092617;28;20140;-44
2021/05/02 01:37:45;;;;;;;1.58;1.10;;;14.20;68.60;;;;;;5091764;28;20093;-45
2021/05/02 01:40:11;;;;;;;1.40;1.20;;;14.20;68.70;;;;;;5089354;28;20036;-44
2021/05/02 01:42:37;;;;;;;1.77;1.30;;;14.30;68.70;;;;;;5091876;28;20488;-44
2021/05/02 01:45:05;;;;;;;1.65;1.30;;;14.20;68.70;;;;;;5092150;28;20093;-45
2021/05/02 01:47:32;;;;;;;1.30;1.20;;;14.20;68.70;;;;;;5089840;28;20105;-46
2021/05/02 01:50:07;;;;;;;1.17;1.08;;;14.20;68.70;;;;;;5092065;28;20055;-45
2021/05/02 01:52:34;;;;;;;;;;;14.20;68.70;;;;;;5093069;28;20044;-44
2021/05/02 01:55:02;;;;;;;1.60;1.20;;;14.20;68.70;;;;;;5091495;28;19924;-45
2021/05/02 01:57:30;;;;;;;1.48;1.20;;;14.20;68.70;;;;;;5091883;28;20060;-41
2021/05/02 01:59:59;;;;;;;1.67;1.00;;;14.20;68.70;;;;;;5090837;28;20101;-44
2021/05/02 02:02:26;;;;;;;1.33;1.13;;;14.20;68.70;;;;;;5091584;28;20048;-45
2021/05/02 02:04:56;;;;;;;1.58;0.98;;;14.20;68.70;;;;;;5093100;28;20051;-47
2021/05/02 02:07:22;;;;;;;1.30;0.95;;;14.20;68.70;;;;;;5092020;28;20044;-45
2021/05/02 02:09:48;;;;;;;1.70;1.23;;;14.20;68.70;;;;;;5091873;28;20044;-49
2021/05/02 02:12:13;;;;;;;1.70;1.15;;;14.20;68.70;;;;;;5090629;28;20614;-47
2021/05/02 02:14:41;;;;;;;1.55;1.23;;;14.30;68.80;;;;;;5091985;28;20077;-45
2021/05/02 02:17:08;;;;;;;1.15;1.05;;;14.20;68.70;;;;;;5089699;28;20040;-43
2021/05/02 02:19:35;;;;;;;1.63;1.30;;;14.20;68.80;;;;;;5091949;28;20044;-49
2021/05/02 02:22:02;;;;;;;1.38;1.27;;;14.20;68.70;;;;;;5091680;28;20489;-44
2021/05/02 02:24:56;;;;;;;2.63;1.00;;;14.20;68.70;;;;;;5091542;28;20040;-42
2021/05/02 02:27:26;;;;;;;2.05;1.05;;;14.20;68.70;;;;;;5091369;28;20047;-47
2021/05/02 02:29:56;;;;;;;1.52;1.20;;;14.20;68.70;;;;;;5092352;28;20055;-46
2021/05/02 02:32:23;;;;;;;1.58;1.25;;;14.20;68.70;;;;;;5095599;28;20056;-48
2021/05/02 02:34:50;;;;;;;1.77;1.08;;;14.20;68.70;;;;;;5095442;28;20040;-46
2021/05/02 02:37:19;;;;;;;1.48;1.13;;;14.20;68.70;;;;;;5095898;28;20048;-46
2021/05/02 02:39:59;;;;;;;2.05;1.23;;;14.20;69.40;;;;;;5095476;28;20097;-44
2021/05/02 02:42:26;;;;;;;1.42;1.00;;;14.20;68.70;;;;;;5095470;28;20036;-44
2021/05/02 02:44:58;;;;;;;1.02;0.93;;;14.20;68.70;;;;;;5095081;28;20052;-45
2021/05/02 02:47:36;;;;;;;0.90;0.90;;;14.20;68.80;;;;;;5095378;28;20458;-45
2021/05/02 02:50:07;;;;;;;1.63;1.00;;;14.20;68.80;;;;;;5094042;28;20561;-45
2021/05/02 02:52:49;;;;;;;1.30;1.10;;;14.20;68.80;;;;;;5092727;28;20476;-43
2021/05/02 02:55:17;;;;;;;1.65;1.15;;;14.20;68.80;;;;;;5093214;28;20487;-47
2021/05/02 02:57:53;;;;;;;2.08;1.20;;;14.20;68.80;;;;;;5094706;28;20389;-47
2021/05/02 03:00:22;;;;;;;1.10;0.95;;;14.20;68.80;;;;;;5093742;28;20036;-46
2021/05/02 03:03:12;;;;;;;2.10;1.17;;;14.20;68.80;;;;;;5094857;28;20504;-44
2021/05/02 03:05:39;;;;;;;1.40;1.23;;;14.20;68.70;;;;;;5094660;28;20491;-45
2021/05/02 03:08:07;;;;;;;0.93;0.88;;;14.10;68.70;;;;;;5094931;28;20511;-46
2021/05/02 03:10:34;;;;;;;1.27;0.90;;;14.10;68.70;;;;;;5095347;28;20068;-45
2021/05/02 03:13:00;;;;;;;1.50;1.10;;;14.20;68.80;;;;;;5094120;28;20074;-47
2021/05/02 03:15:27;;;;;;;1.70;1.10;;;14.20;68.80;;;;;;5094655;28;20052;-44
2021/05/02 03:18:14;;;;;;;2.22;0.95;;;14.20;68.80;;;;;;5095074;28;20068;-43
2021/05/02 03:20:44;;;;;;;1.88;1.08;;;14.20;68.80;;;;;;5093217;28;20112;-43
2021/05/02 03:23:43;;;;;;;1.30;1.10;;;14.20;68.80;;;;;;5091931;28;20405;-47
2021/05/02 03:26:10;;;;;;;1.20;1.00;;;14.10;68.70;;;;;;5051832;28;20134;-45
2021/05/02 03:28:39;;;;;;;1.58;1.10;;;14.10;68.70;;;;;;5051731;28;20048;-44
2021/05/02 03:31:06;;;;;;;1.48;1.20;;;14.10;68.80;;;;;;5035651;28;20053;-46
2021/05/02 03:33:40;;;;;;;1.33;1.10;;;14.10;68.70;;;;;;5051873;28;20049;-44
2021/05/02 03:36:10;;;;;;;0.80;0.67;;;14.10;68.80;;;;;;5051647;28;20136;-44
2021/05/02 03:38:47;;;;;;;1.27;0.90;;;14.20;68.80;;;;;;5051977;28;20124;-46
2021/05/02 03:41:15;;;;;;;1.80;0.98;;;14.10;68.70;;;;;;5049023;28;20478;-44
2021/05/02 03:43:41;;;;;;;1.20;1.10;;;14.10;68.70;;;;;;5049083;28;20137;-44
2021/05/02 03:46:22;;;;;;;1.08;1.00;;;14.10;68.80;;;;;;5052094;28;20130;-44
2021/05/02 03:48:52;;;;;;;0.98;0.82;;;14.10;68.80;;;;;;5050660;28;20049;-43
2021/05/02 03:51:18;;;;;;;1.00;0.90;;;14.10;68.80;;;;;;5051991;28;20069;-45
2021/05/02 03:53:43;;;;;;;2.00;1.08;;;14.10;68.80;;;;;;5051677;28;20547;-43
2021/05/02 03:56:10;;;;;;;1.90;1.00;;;14.10;68.80;;;;;;5051772;28;20056;-43
2021/05/02 03:58:35;;;;;;;1.13;0.85;;;14.10;68.80;;;;;;5049050;28;20131;-45
2021/05/02 04:01:01;;;;;;;1.20;1.10;;;14.10;68.80;;;;;;5059767;28;20365;-41
2021/05/02 04:03:27;;;;;;;2.17;1.20;;;14.10;68.80;;;;;;5093157;28;20051;-44
2021/05/02 04:05:53;;;;;;;1.48;0.88;;;14.10;68.80;;;;;;5093371;28;20052;-44
2021/05/02 04:08:19;;;;;;;0.80;0.80;;;14.10;68.80;;;;;;5093691;28;20135;-42
2021/05/02 04:10:45;;;;;;;1.20;0.90;;;14.10;68.80;;;;;;5093916;28;20040;-42
2021/05/02 04:13:10;;;;;;;1.15;0.93;;;14.20;68.80;;;;;;5092625;28;20047;-46
2021/05/02 04:15:36;;;;;;;0.90;0.80;;;14.10;68.80;;;;;;5093495;28;20092;-45
2021/05/02 04:18:02;;;;;;;1.38;0.93;;;14.10;68.80;;;;;;5093378;28;20465;-43
2021/05/02 04:20:28;;;;;;;1.55;0.95;;;14.10;68.80;;;;;;5093693;28;20052;-48
2021/05/02 04:22:53;;;;;;;0.80;0.80;;;14.10;68.80;;;;;;5093652;28;20503;-48
2021/05/02 04:25:19;;;;;;;1.83;1.17;;;14.10;68.80;;;;;;5093823;28;20408;-47
2021/05/02 04:27:45;;;;;;;0.60;0.60;;;14.10;68.80;;;;;;5093104;28;20496;-48
2021/05/02 04:30:11;;;;;;;0.95;0.80;;;14.10;68.80;;;;;;5092735;28;20078;-45
2021/05/02 04:32:37;;;;;;;1.23;0.90;;;14.10;68.90;;;;;;5092921;28;20040;-43
2021/05/02 04:35:03;;;;;;;0.95;0.88;;;14.10;68.80;;;;;;5093930;28;20040;-42
2021/05/02 04:37:29;;;;;;;1.15;0.80;;;14.10;68.80;;;;;;5093165;28;20111;-43
2021/05/02 04:39:55;;;;;;;1.00;0.90;;;14.10;68.80;;;;;;5092982;28;20131;-47
2021/05/02 04:42:20;;;;;;;1.02;0.80;;;14.10;68.80;;;;;;5093471;28;20059;-47
2021/05/02 04:44:46;;;;;;;1.30;0.73;;;14.10;68.80;;;;;;5092701;28;20044;-48
2021/05/02 04:47:18;;;;;;;0.88;0.88;;;14.10;68.80;;;;;;5093272;28;20492;-47
2021/05/02 04:49:46;;;;;;;1.10;0.95;;;14.10;68.80;;;;;;5091903;28;20039;-47
2021/05/02 04:52:13;;;;;;;0.75;0.75;;;14.10;68.80;;;;;;5092882;28;20068;-45
2021/05/02 04:54:39;;;;;;;1.33;1.10;;;14.10;68.80;;;;;;5092714;28;20093;-48
2021/05/02 04:57:05;;;;;;;0.88;0.82;;;14.10;68.80;;;;;;5092969;28;20068;-47
2021/05/02 04:59:31;;;;;;;1.85;1.00;;;14.10;68.80;;;;;;5090518;28;20055;-46
2021/05/02 05:01:57;;;;;;;0.90;0.80;;;14.10;68.80;;;;;;5092083;28;20043;-43
2021/05/02 05:04:23;;;;;;;1.45;0.88;;;14.10;68.80;;;;;;5092507;28;20062;-46
2021/05/02 05:06:49;;;;;;;1.42;1.15;;;14.10;68.80;;;;;;5093030;28;20043;-47
2021/05/02 05:09:15;;;;;;;1.23;1.00;;;14.10;68.80;;;;;;5092453;28;20059;-45
2021/05/02 05:11:41;;;;;;;1.00;0.93;;;14.10;68.80;;;;;;5091919;28;20500;-43
2021/05/02 05:14:06;;;;;;;1.50;0.85;;;14.10;68.80;;;;;;5092657;28;20081;-44
2021/05/02 05:16:32;;;;;;;0.70;0.70;;;14.10;68.80;;;;;;5092462;28;20040;-44
2021/05/02 05:18:57;;;;;;;1.63;0.95;;;14.10;68.80;;;;;;5092508;28;20036;-46
2021/05/02 05:21:23;;;;;;;0.90;0.75;;;14.10;68.80;;;;;;5092805;28;20119;-45
2021/05/02 05:23:49;;;;;;;1.40;0.90;;;14.10;68.80;;;;;;5092656;28;20041;-48
2021/05/02 05:26:14;;;;;;;0.80;0.80;;;14.10;68.80;;;;;;5092561;28;20517;-44
2021/05/02 05:28:40;;;;;;;0.80;0.75;;;14.10;68.80;;;;;;5092378;28;20051;-47
2021/05/02 05:31:06;;;;;;;1.13;0.73;;;14.10;68.80;;;;;;5092169;28;20073;-47
2021/05/02 05:33:32;;;;;;;0.75;0.75;;;14.10;68.80;;;;;;5092018;28;20040;-47
2021/05/02 05:35:58;;;;;;;2.05;1.15;;;14.00;68.70;;;;;;5092244;28;20039;-44
2021/05/02 05:38:23;;;;;;;1.00;0.90;;;14.10;68.80;;;;;;5092764;28;20487;-46
2021/05/02 05:40:50;;;;;;;1.20;0.82;;;14.10;68.80;;;;;;5092079;28;20124;-45
2021/05/02 05:43:15;;;;;;;1.05;0.95;;;14.10;68.80;;;;;;5092241;28;20496;-47
2021/05/02 05:45:41;;;;;;;0.93;0.77;;;14.10;68.80;;;;;;5092173;28;20048;-46
2021/05/02 05:48:07;;;;;;;1.00;0.80;;;14.10;68.80;;;;;;5091958;28;20588;-48
2021/05/02 05:50:33;;;;;;;0.60;0.60;;;14.10;68.80;;;;;;5092764;28;20550;-47
2021/05/02 05:52:58;;;;;;;0.68;0.68;;;14.10;68.80;;;;;;5092719;28;20040;-42
2021/05/02 05:55:24;;;;;;;0.70;0.70;;;14.10;68.80;;;;;;5092802;28;20412;-43
2021/05/02 05:57:51;;;;;;;1.23;0.85;;;14.10;68.90;;;;;;5092594;28;20052;-45
2021/05/02 06:00:19;;;;;;;0.70;0.70;;;14.10;68.80;;;;;;5092844;28;20044;-47
2021/05/02 06:02:45;;;;;;;0.82;0.70;;;14.00;68.80;;;;;;5092411;28;20066;-44
2021/05/02 06:05:12;;;;;;;1.15;0.90;;;14.10;68.80;;;;;;5094874;28;20048;-44
2021/05/02 06:07:38;;;;;;;0.80;0.65;;;14.10;68.80;;;;;;5100323;28;20086;-41
2021/05/02 06:10:05;;;;;;;0.93;0.85;;;14.10;68.80;;;;;;5100530;28;20048;-44
2021/05/02 06:12:31;;;;;;;1.25;1.00;;;14.00;68.80;;;;;;5099349;28;20044;-41
2021/05/02 06:14:57;;;;;;;0.80;0.68;;;14.00;68.70;;;;;;5096471;28;20127;-42
2021/05/02 06:17:22;;;;;;;1.23;0.90;;;14.10;68.80;;;;;;5095799;28;20174;-40
2021/05/02 06:19:48;;;;;;;1.55;0.80;;;14.10;68.80;;;;;;5099063;28;20054;-43
2021/05/02 06:22:14;;;;;;;0.77;0.70;;;14.00;68.80;;;;;;5116904;28;20372;-40
2021/05/02 06:24:40;;;;;;;0.80;0.80;;;14.10;68.80;;;;;;5107182;28;20044;-42
2021/05/02 06:27:05;;;;;;;1.77;0.68;;;14.10;68.80;;;;;;5096155;28;20453;-41
2021/05/02 06:29:31;;;;;;;2.17;1.05;;;14.10;68.80;;;;;;5096343;28;20517;-42
2021/05/02 06:31:57;;;;;;;1.25;0.85;;;14.10;68.80;;;;;;5096648;28;20154;-44
2021/05/02 06:34:22;;;;;;;1.17;1.02;;;14.10;68.80;;;;;;5095845;28;20047;-41
2021/05/02 06:36:48;;;;;;;0.57;0.57;;;14.10;68.80;;;;;;5096310;28;20047;-43
2021/05/02 06:39:14;;;;;;;1.13;0.80;;;14.00;68.80;;;;;;5096604;28;20118;-42
2021/05/02 06:41:44;;;;;;;1.08;0.90;;;14.00;68.70;;;;;;5096368;28;20063;-43
2021/05/02 06:44:11;;;;;;;1.58;0.77;;;14.10;68.80;;;;;;5096311;28;20052;-46
2021/05/02 06:46:39;;;;;;;0.63;0.63;;;14.10;68.80;;;;;;5096215;28;20048;-42
2021/05/02 06:49:06;;;;;;;1.15;0.90;;;14.00;68.70;;;;;;5095640;28;20066;-43
2021/05/02 06:51:32;;;;;;;1.23;0.82;;;14.00;68.70;;;;;;5095932;28;20047;-40
2021/05/02 06:53:58;;;;;;;0.65;0.60;;;14.00;68.80;;;;;;5095937;28;20052;-42
2021/05/02 06:56:27;;;;;;;0.63;0.63;;;14.10;68.80;;;;;;5095886;28;20052;-45
2021/05/02 06:58:54;;;;;;;0.98;0.73;;;14.10;68.80;;;;;;5090403;28;21231;-44
2021/05/02 07:01:21;;;;;;;0.68;0.68;;;14.10;68.80;;;;;;5086871;28;20087;-45
2021/05/02 07:03:47;;;;;;;1.48;1.00;;;14.10;68.80;;;;;;5087240;28;20040;-45
2021/05/02 07:06:14;;;;;;;1.27;1.05;;;14.00;68.70;;;;;;5094158;28;20047;-40
2021/05/02 07:08:40;;;;;;;3.20;0.90;;;14.00;68.80;;;;;;5095580;28;20051;-40
2021/05/02 07:11:05;;;;;;;0.90;0.77;;;14.00;68.70;;;;;;5095517;28;20048;-42
2021/05/02 07:13:31;;;;;;;1.05;0.95;;;14.10;68.80;;;;;;5094268;28;20040;-42
2021/05/02 07:16:01;;;;;;;0.98;0.88;;;14.10;68.80;;;;;;5094138;28;20048;-44
2021/05/02 07:18:31;;;;;;;1.63;0.90;;;14.10;68.80;;;;;;5094360;28;20040;-42
2021/05/02 07:20:57;;;;;;;1.35;0.70;;;14.10;68.80;;;;;;5094611;28;20131;-46
2021/05/02 07:23:23;;;;;;;0.70;0.70;;;14.10;68.80;;;;;;5095425;28;20127;-40
2021/05/02 07:25:49;;;;;;;0.60;0.60;;;14.10;68.80;;;;;;5094962;28;20515;-44
2021/05/02 07:28:14;;;;;;;0.68;0.60;;;14.10;68.80;;;;;;5094426;28;20456;-44
2021/05/02 07:30:40;;;;;;;0.70;0.60;;;14.10;68.80;;;;;;5094769;28;20381;-43
2021/05/02 07:33:06;;;;;;;1.45;0.80;;;14.00;68.80;;;;;;5094938;28;20385;-41
2021/05/02 07:35:31;;;;;;;0.73;0.68;;;14.10;68.90;;;;;;5094096;28;20454;-44
2021/05/02 07:37:58;;;;;;;0.95;0.75;;;14.10;68.80;;;;;;5094743;28;20047;-44
2021/05/02 07:40:24;;;;;;;0.88;0.65;;;14.10;68.90;;;;;;5094561;28;20109;-41
2021/05/02 07:42:50;;;;;;;0.68;0.68;;;14.10;68.80;;;;;;5093711;28;20420;-42
2021/05/02 07:45:15;;;;;;;1.42;0.70;;;14.10;68.80;;;;;;5101704;28;20055;-40
2021/05/02 07:47:41;;;;;;;0.88;0.88;;;14.10;68.80;;;;;;5115052;28;20046;-46
2021/05/02 07:50:08;;;;;;;0.82;0.70;;;14.10;68.80;;;;;;5100813;28;20048;-39
2021/05/02 07:52:34;;;;;;;1.00;0.80;;;14.10;68.80;;;;;;5094298;28;20052;-43
2021/05/02 07:54:59;;;;;;;0.60;0.60;;;14.10;68.80;;;;;;5094494;28;20059;-43
2021/05/02 07:57:25;;;;;;;0.95;0.90;;;14.10;68.80;;;;;;5094312;28;20055;-42
2021/05/02 07:59:52;;;;;;;1.55;0.98;;;14.10;68.80;;;;;;5093551;28;20416;-48
2021/05/02 08:02:18;;;;;;;0.70;0.70;;;14.00;68.80;;;;;;5107773;28;20052;-45
2021/05/02 08:04:45;;;;;;;1.50;0.98;;;14.00;68.80;;;;;;5114521;28;20048;-45
2021/05/02 08:07:11;;;;;;;0.63;0.63;;;14.10;68.80;;;;;;5113937;28;20055;-39
2021/05/02 08:09:37;;;;;;;1.38;1.15;;;14.10;68.80;;;;;;5114662;28;20044;-43
2021/05/02 08:12:04;;;;;;;1.38;0.80;;;14.10;68.80;;;;;;5097126;28;20063;-44
2021/05/02 08:14:30;;;;;;;0.75;0.75;;;14.10;68.80;;;;;;5093529;28;20072;-45
2021/05/02 08:16:56;;;;;;;1.15;0.70;;;14.10;68.80;;;;;;5094149;28;20052;-41
2021/05/02 08:19:22;;;;;;;0.60;0.60;;;14.10;68.80;;;;;;5094388;28;20044;-44
2021/05/02 08:21:48;;;;;;;1.13;0.88;;;14.10;68.80;;;;;;5093854;28;20155;-41
2021/05/02 08:24:14;;;;;;;0.60;0.60;;;14.10;68.80;;;;;;5094040;28;20047;-42
2021/05/02 08:26:41;;;;;;;1.33;0.82;;;14.10;68.80;;;;;;5093891;28;20047;-43
2021/05/02 08:29:07;;;;;;;0.82;0.80;;;14.10;68.80;;;;;;5094046;28;20044;-42
2021/05/02 08:31:33;;;;;;;1.02;0.70;;;14.10;68.80;;;;;;5094274;28;20067;-42
2021/05/02 08:33:59;;;;;;;1.00;0.70;;;14.10;68.80;;;;;;5094133;28;20055;-46
2021/05/02 08:36:24;;;;;;;0.60;0.60;;;14.10;68.70;;;;;;5094032;28;20048;-42
2021/05/02 08:38:51;;;;;;;0.88;0.70;;;14.10;68.70;;;;;;5107366;28;20531;-40
2021/05/02 08:41:16;;;;;;;1.08;0.75;;;14.10;68.70;;;;;;5114296;28;20050;-43
2021/05/02 08:43:42;;;;;;;0.73;0.60;;;14.10;68.80;;;;;;5114183;28;20051;-40
2021/05/02 08:46:09;;;;;;;0.70;0.70;;;14.10;68.70;;;;;;5114288;28;20491;-39
2021/05/02 08:48:35;;;;;;;0.50;0.50;;;14.10;68.70;;;;;;5114024;28;20063;-44
2021/05/02 08:51:01;;;;;;;1.02;0.77;;;14.10;68.70;;;;;;5114080;28;20075;-44
2021/05/02 08:53:27;;;;;;;0.52;0.52;;;14.10;68.70;;;;;;5103509;27;20085;-39
2021/05/02 08:55:56;;;;;;;0.75;0.60;;;14.20;68.80;;;;;;5081652;28;20048;-40
2021/05/02 08:58:25;;;;;;;0.90;0.73;;;14.20;68.70;;;;;;5072306;28;20049;-38
2021/05/02 09:00:51;;;;;;;0.80;0.80;;;14.10;68.70;;;;;;5072595;28;20131;-38
2021/05/02 09:03:18;;;;;;;0.77;0.57;;;14.20;68.70;;;;;;5072513;28;20127;-40
2021/05/02 09:05:47;;;;;;;0.40;0.40;;;14.20;68.70;;;;;;5072462;28;20067;-43
2021/05/02 09:08:29;;;;;;;0.50;0.50;;;14.20;68.70;;;;;;5072344;28;20067;-41
2021/05/02 09:10:55;;;;;;;0.60;0.60;;;14.20;68.70;;;;;;5072314;28;20049;-42
2021/05/02 09:13:20;;;;;;;0.80;0.73;;;14.20;68.70;;;;;;5073670;28;20040;-41
2021/05/02 09:15:56;;;;;;;0.80;0.60;;;14.20;68.70;;;;;;5092022;28;20040;-40
2021/05/02 09:18:35;;;;;;;1.33;0.73;;;14.20;68.60;;;;;;5092289;28;20484;-39
2021/05/02 09:21:02;;;;;;;0.93;0.75;;;14.20;68.60;;;;;;5077977;28;20040;-39
2021/05/02 09:23:42;;;;;;;1.13;0.80;;;14.20;68.60;;;;;;5091003;28;20460;-39
2021/05/02 09:26:24;;;;;;;0.70;0.60;;;14.20;68.60;;;;;;5092593;28;20130;-39
2021/05/02 09:28:54;;;;;;;0.60;0.60;;;14.20;68.60;;;;;;5092303;28;20059;-39
2021/05/02 09:31:27;;;;;;;0.60;0.60;;;14.20;68.60;;;;;;5091698;28;20127;-38
2021/05/02 09:33:55;;;;;;;0.60;0.60;;;14.20;68.60;;;;;;5092623;28;20074;-41
2021/05/02 09:36:21;;;;;;;0.98;0.75;;;14.20;68.60;;;;;;5092277;28;20052;-39
2021/05/02 09:38:49;;;;;;;1.40;1.02;;;14.20;68.50;;;;;;5091682;28;20048;-42
2021/05/02 09:41:16;;;;;;;0.75;0.60;;;14.20;68.50;;;;;;5091578;28;20051;-39
2021/05/02 09:43:47;;;;;;;0.75;0.70;;;14.20;68.50;;;;;;5091707;28;20132;-40
2021/05/02 09:49:10;;;;;;;0.65;0.65;;;14.20;68.50;;;;;;5072256;28;20056;-39
2021/05/02 09:51:52;;;;;;;0.75;0.60;;;14.20;68.50;;;;;;5083825;28;20048;-43
2021/05/02 09:54:22;;;;;;;0.80;0.80;;;14.20;68.50;;;;;;5070626;28;20052;-39
2021/05/02 09:56:55;;;;;;;0.70;0.70;;;14.20;68.50;;;;;;5071810;28;20549;-42
2021/05/02 09:59:25;;;;;;;0.70;0.60;;;14.20;68.50;;;;;;5071397;28;20097;-42
2021/05/02 10:02:10;;;;;;;0.90;0.55;;;14.20;68.50;;;;;;5079280;28;20036;-40
2021/05/02 10:04:41;;;;;;;1.38;0.88;;;14.20;68.50;;;;;;5091987;28;20071;-45
2021/05/02 10:07:15;;;;;;;0.70;0.70;;;14.30;68.50;;;;;;5091751;28;20051;-40
2021/05/02 10:09:42;;;;;;;1.17;0.63;;;14.20;68.40;;;;;;5091612;28;20047;-39
2021/05/02 10:12:09;;;;;;;0.50;0.50;;;14.20;68.40;;;;;;5092071;28;20047;-43
2021/05/02 10:14:37;;;;;;;0.80;0.70;;;14.30;68.50;;;;;;5092370;28;20055;-43
2021/05/02 10:17:03;;;;;;;0.70;0.70;;;14.30;68.50;;;;;;5092360;28;20419;-47
2021/05/02 10:19:29;;;;;;;0.70;0.70;;;14.20;68.40;;;;;;5092168;28;20070;-47
2021/05/02 10:21:56;;;;;;;0.68;0.68;;;14.30;68.50;;;;;;5091690;28;20103;-44
2021/05/02 10:24:22;;;;;;;1.15;0.75;;;14.30;69.10;;;;;;5092165;28;20123;-44
2021/05/02 10:26:53;;;;;;;0.65;0.60;;;14.30;68.40;;;;;;5112233;28;20044;-44
2021/05/02 10:29:29;;;;;;;0.68;0.68;;;14.30;68.40;;;;;;5105770;28;20054;-47
2021/05/02 10:32:00;;;;;;;0.50;0.50;;;14.30;68.40;;;;;;5092261;28;20109;-40
2021/05/02 10:34:35;;;;;;;0.40;0.40;;;14.30;68.40;;;;;;5092446;28;20048;-45
2021/05/02 10:37:22;;;;;;;0.50;0.50;;;14.30;68.40;;;;;;5092462;28;20052;-40
2021/05/02 10:40:02;;;;;;;0.60;0.60;;;14.30;68.30;;;;;;5091667;28;20071;-44
2021/05/02 10:42:39;;;;;;;1.35;0.93;;;14.30;68.40;;;;;;5091465;28;20056;-46
2021/05/02 10:45:33;;;;;;;0.60;0.60;;;14.30;68.40;;;;;;5091785;28;20068;-42
2021/05/02 10:48:14;;;;;;;1.30;0.77;;;14.30;68.30;;;;;;5088928;28;20040;-38
2021/05/02 10:50:42;;;;;;;0.60;0.60;;;14.30;68.30;;;;;;5090065;28;20074;-41
2021/05/02 10:53:09;;;;;;;1.15;0.80;;;14.30;68.30;;;;;;5095392;28;20044;-42
2021/05/02 10:55:50;;;;;;;1.15;0.70;;;14.30;68.30;;;;;;5095666;28;20431;-43
2021/05/02 10:58:29;;;;;;;1.38;0.60;;;14.30;68.30;;;;;;5092646;28;20047;-45
2021/05/02 11:01:03;;;;;;;0.70;0.70;;;14.30;68.30;;;;;;5092773;28;20040;-42
2021/05/02 11:03:35;;;;;;;0.70;0.70;;;14.30;68.30;;;;;;5095099;28;20075;-45
2021/05/02 11:06:21;;;;;;;0.88;0.63;;;14.30;68.30;;;;;;5093156;28;20072;-42
2021/05/02 11:08:48;;;;;;;0.90;0.80;;;14.30;68.30;;;;;;5093362;28;20497;-41
2021/05/02 11:11:30;;;;;;;0.57;0.57;;;14.30;68.30;;;;;;5095060;28;20089;-45
2021/05/02 11:14:08;;;;;;;1.27;0.70;;;14.40;68.40;;;;;;5094733;28;20048;-44
2021/05/02 11:16:37;;;;;;;0.80;0.60;;;14.30;68.30;;;;;;5094852;28;20040;-44
2021/05/02 11:19:05;;;;;;;0.82;0.77;;;14.30;68.30;;;;;;5095317;28;20119;-43
2021/05/02 11:21:49;;;;;;;0.80;0.57;;;14.30;68.30;;;;;;5094897;28;20514;-42
2021/05/02 11:24:15;;;;;;;0.88;0.80;;;14.40;68.30;;;;;;5094644;28;20044;-44
2021/05/02 11:32:11;;;;;;;0.90;0.65;;;14.40;68.30;;;;;;5093813;28;20509;-46
2021/05/02 11:34:51;;;;;;;1.40;0.80;;;14.40;68.30;;;;;;5094675;28;20131;-38
2021/05/02 11:37:44;;;;;;;0.57;0.57;;;14.40;68.30;;;;;;5094818;28;20047;-42
2021/05/02 11:43:01;;;;;;;1.15;0.77;;;14.40;68.30;;;;;;5092979;28;20101;-40
2021/05/02 11:45:39;;;;;;;0.57;0.57;;;14.40;68.30;;;;;;5091459;28;20831;-40
2021/05/02 11:48:07;;;;;;;0.93;0.45;;;14.40;68.30;;;;;;5094085;28;20044;-44
2021/05/02 11:50:43;;;;;;;0.60;0.60;;;14.40;68.30;;;;;;5094180;28;20111;-41
2021/05/02 11:53:09;;;;;;;0.73;0.68;;;14.40;68.30;;;;;;5091849;28;20054;-49
2021/05/02 11:55:40;;;;;;;0.63;0.60;;;14.50;68.30;;;;;;5094034;28;20047;-47
2021/05/02 11:58:08;;;;;;;0.50;0.50;;;14.40;68.30;;;;;;5094546;28;20056;-45
2021/05/02 12:00:43;;;;;;;0.40;0.40;;;14.40;68.30;;;;;;5094038;28;20044;-45
2021/05/02 12:03:10;;;;;;;0.53;0.53;;;14.40;68.20;;;;;;5073972;28;20070;-45
2021/05/02 12:05:53;;;;;;;0.73;0.65;;;14.50;68.30;;;;;;5094014;28;20097;-48
2021/05/02 12:08:22;;;;;;;1.00;0.80;;;14.50;68.30;;;;;;5093970;28;20055;-45
2021/05/02 12:10:54;;;;;;;0.60;0.60;;;14.30;68.20;;;;;;5094529;28;20044;-48
2021/05/02 12:13:50;;;;;;;0.98;0.60;;;14.50;68.30;;;;;;5094359;28;20056;-46
2021/05/02 12:16:17;;;;;;;0.60;0.60;;;14.40;68.20;;;;;;5093504;27;20135;-49
2021/05/02 12:18:49;;;;;;;0.65;0.65;;;14.50;68.20;;;;;;5094062;28;20040;-46
2021/05/02 12:21:15;;;;;;;1.05;0.60;;;14.40;68.20;;;;;;5094220;28;20487;-47
2021/05/02 12:23:42;;;;;;;0.75;0.73;;;14.50;68.20;;;;;;5094252;28;20044;-47
2021/05/02 12:26:09;;;;;;;0.43;0.40;;;14.50;68.20;;;;;;5094288;28;20054;-48
2021/05/02 12:28:35;;;;;;;1.27;0.65;;;14.50;68.30;;;;;;5094051;28;20040;-46
2021/05/02 12:31:03;;;;;;;0.65;0.60;;;14.50;68.20;;;;;;5093051;28;20067;-43
2021/05/02 12:33:31;;;;;;;0.50;0.50;;;14.50;68.20;;;;;;5093689;28;20051;-48
2021/05/02 12:35:56;;;;;;;0.85;0.65;;;14.50;68.20;;;;;;5094163;28;20073;-44
2021/05/02 12:38:28;;;;;;;0.60;0.60;;;14.50;68.20;;;;;;5094133;28;20488;-46
2021/05/02 12:40:54;;;;;;;0.98;0.65;;;14.50;68.20;;;;;;5093359;28;20126;-45
2021/05/02 12:43:24;;;;;;;0.60;0.60;;;14.50;68.20;;;;;;5093876;28;20138;-45
2021/05/02 12:45:50;;;;;;;1.58;0.80;;;14.50;68.10;;;;;;5093499;28;20052;-48
2021/05/02 12:48:43;;;;;;;0.80;0.60;;;14.50;68.10;;;;;;5093781;28;20420;-45
2021/05/02 12:51:11;;;;;;;0.80;0.80;;;14.50;68.30;;;;;;5092316;28;20059;-47
2021/05/02 12:53:38;;;;;;;1.15;0.70;;;14.50;68.10;;;;;;5093711;28;20378;-44
2021/05/02 12:56:04;;;;;;;1.15;0.80;;;14.50;68.10;;;;;;5093470;28;20070;-45
2021/05/02 12:58:35;;;;;;;0.65;0.65;;;14.50;68.10;;;;;;5093703;28;20523;-49
2021/05/02 13:01:05;;;;;;;1.05;0.60;;;14.50;68.10;;;;;;5092612;28;20044;-44
2021/05/02 13:03:40;;;;;;;0.55;0.50;;;14.50;68.10;;;;;;5093700;28;20442;-49
2021/05/02 13:06:11;;;;;;;0.55;0.52;;;14.50;68.10;;;;;;5093628;28;20102;-47
2021/05/02 13:08:40;;;;;;;0.60;0.60;;;14.50;68.10;;;;;;5091842;28;20052;-51